Delemont, Switzerland
Current Conditions -  °F | °C
As of 10:20 PM on Saturday 22 Nov 2014 (Local Time) from LSZG Reporting Station
Rain Showers Rain Showers  
Wind Chill: 43°   Ceiling: 200
Heat Index: 43°   Visibility: 0.12mi
Dew Point: 43°   Wind: 1mph
Humidity: 100%   Direction: NA
Pressure: 30.18"   Gusts: NA
Location:  47.37°N, 7.33°E
Report Text: LSZG 222120Z AUTO VRB01KT 0200 -SHRA BCFG VV002 06/06 Q1022
Loading
Personal Weather Stations






























Interactive Weather Map New forecast layout! Learn more

10-Day Weather Forecast

Advertisements
Track Severe Weather on mobile